Time;durP1;ratioP1;P1;durP2;ratioP2;P2;SDS_P1;SDS_P2;PMS_P1;PMS_P2;Temp;Humidity;BMP_temperature;BMP_pressure;BME280_temperature;BME280_humidity;BME280_pressure;Samples;Min_cycle;Max_cycle;Signal;HPM_P1;HPM_P2
2022/08/15 00:01:13;;;;;;;2.47;2.10;;;21.80;83.90;;;;;;5014803;28;20037;-76
2022/08/15 00:03:42;;;;;;;2.75;1.92;;;21.80;83.90;;;;;;5013730;28;20492;-77
2022/08/15 00:06:12;;;;;;;2.28;1.95;;;21.80;84.00;;;;;;5028850;28;20480;-77
2022/08/15 00:08:45;;;;;;;2.25;2.00;;;21.80;83.80;;;;;;5013930;28;20396;-77
2022/08/15 00:11:15;;;;;;;2.03;1.92;;;21.90;83.80;;;;;;5029270;28;20029;-77
2022/08/15 00:13:44;;;;;;;2.10;2.00;;;21.90;83.90;;;;;;5015167;28;20380;-77
2022/08/15 00:16:13;;;;;;;4.32;2.08;;;21.90;83.70;;;;;;5014563;28;20024;-77
2022/08/15 00:18:40;;;;;;;2.08;1.98;;;21.90;83.70;;;;;;5013639;28;20030;-77
2022/08/15 00:21:06;;;;;;;2.63;2.33;;;21.90;84.00;;;;;;5013046;28;20611;-77
2022/08/15 00:23:31;;;;;;;2.33;2.00;;;21.90;83.90;;;;;;5012226;28;20070;-78
2022/08/15 00:25:59;;;;;;;3.15;1.90;;;21.90;83.80;;;;;;5013162;28;20080;-77
2022/08/15 00:28:27;;;;;;;2.20;2.00;;;21.90;83.90;;;;;;5013549;28;20026;-77
2022/08/15 00:30:54;;;;;;;2.20;2.00;;;21.80;84.00;;;;;;5014121;28;20018;-77
2022/08/15 00:33:20;;;;;;;2.00;1.88;;;21.80;84.10;;;;;;5013963;28;20392;-77
2022/08/15 00:35:49;;;;;;;2.20;1.92;;;21.80;84.60;;;;;;5014273;28;20030;-76
2022/08/15 00:38:18;;;;;;;4.85;2.25;;;21.70;84.70;;;;;;5012189;28;20100;-76
2022/08/15 00:43:44;;;;;;;3.80;2.30;;;21.60;85.00;;;;;;5014398;28;20040;-76
2022/08/15 00:46:12;;;;;;;2.30;2.10;;;21.60;85.00;;;;;;5013111;28;20463;-76
2022/08/15 00:48:43;;;;;;;1.88;1.77;;;21.50;85.10;;;;;;5012768;28;20473;-76
2022/08/15 00:51:34;;;;;;;2.10;2.00;;;21.50;85.30;;;;;;5012063;28;20044;-76
2022/08/15 00:54:11;;;;;;;3.53;2.42;;;21.40;85.60;;;;;;5013174;28;20065;-76
2022/08/15 00:57:23;;;;;;;2.38;1.98;;;21.40;85.70;;;;;;5013595;28;20493;-77
2022/08/15 01:00:06;;;;;;;2.20;2.03;;;21.40;85.60;;;;;;5011250;28;20041;-76
2022/08/15 01:02:33;;;;;;;;;;;21.40;85.40;;;;;;5013418;28;20041;-76
2022/08/15 01:04:59;;;;;;;2.80;2.40;;;21.40;85.80;;;;;;5012271;28;19910;-75
2022/08/15 01:07:26;;;;;;;2.30;2.00;;;21.30;85.90;;;;;;5013034;28;20033;-76
2022/08/15 01:09:52;;;;;;;2.58;2.15;;;21.30;86.50;;;;;;5013618;28;20017;-75
2022/08/15 01:12:25;;;;;;;2.63;2.17;;;21.20;86.70;;;;;;5011584;28;20037;-75
2022/08/15 01:15:04;;;;;;;5.50;2.35;;;21.20;87.00;;;;;;5013528;28;20213;-76
2022/08/15 01:17:31;;;;;;;2.40;1.92;;;21.10;87.20;;;;;;5011470;28;20037;-75
2022/08/15 01:20:06;;;;;;;6.50;2.22;;;21.10;87.10;;;;;;5011562;28;20109;-76
2022/08/15 01:22:53;;;;;;;2.75;2.20;;;21.10;87.30;;;;;;5012562;28;20493;-76
2022/08/15 01:25:28;;;;;;;2.50;2.30;;;21.10;87.40;;;;;;5011911;28;20025;-76
2022/08/15 01:28:05;;;;;;;3.88;2.28;;;21.10;87.50;;;;;;5012595;28;20037;-76
2022/08/15 01:30:45;;;;;;;4.13;2.10;;;21.00;87.60;;;;;;5013021;28;20025;-77
2022/08/15 01:33:13;;;;;;;2.30;2.20;;;21.00;87.90;;;;;;5012406;28;20576;-77
2022/08/15 01:35:40;;;;;;;2.60;2.40;;;21.00;88.60;;;;;;5012763;28;20025;-77
2022/08/15 01:38:20;;;;;;;2.65;2.08;;;21.00;87.90;;;;;;5010506;28;20022;-76
2022/08/15 01:41:13;;;;;;;3.33;2.03;;;21.00;88.00;;;;;;5011858;28;20038;-76
2022/08/15 01:43:42;;;;;;;;;;;20.90;88.20;;;;;;5012549;28;20040;-76
2022/08/15 01:46:11;;;;;;;3.13;2.25;;;20.90;88.80;;;;;;5011719;28;19906;-76
2022/08/15 01:48:43;;;;;;;2.53;2.33;;;20.90;88.20;;;;;;5012187;28;20026;-75
2022/08/15 01:51:10;;;;;;;3.92;2.30;;;20.90;88.20;;;;;;5012036;28;20009;-76
2022/08/15 01:53:51;;;;;;;2.30;2.10;;;20.90;88.20;;;;;;5012060;28;20597;-76
2022/08/15 01:56:23;;;;;;;2.58;1.95;;;20.90;88.10;;;;;;4993151;28;20485;-75
2022/08/15 01:58:49;;;;;;;3.72;2.40;;;20.90;88.10;;;;;;5009846;28;20049;-76
2022/08/15 02:01:34;;;;;;;2.38;2.17;;;20.90;88.30;;;;;;5012416;28;20034;-76
2022/08/15 02:04:01;;;;;;;2.38;1.88;;;20.90;88.30;;;;;;5010938;28;20057;-76
2022/08/15 02:06:30;;;;;;;2.40;2.20;;;20.90;88.30;;;;;;5011471;28;20033;-76
2022/08/15 02:08:56;;;;;;;3.13;2.50;;;20.90;88.20;;;;;;5010293;28;20136;-76
2022/08/15 02:11:27;;;;;;;2.55;2.35;;;20.90;88.20;;;;;;5011016;28;20018;-76
2022/08/15 02:13:54;;;;;;;3.67;2.55;;;20.90;88.10;;;;;;5011569;28;20068;-77
2022/08/15 02:16:23;;;;;;;2.70;1.98;;;20.90;88.30;;;;;;5012308;28;20504;-76
2022/08/15 02:18:49;;;;;;;1.92;1.83;;;20.90;88.20;;;;;;5011532;28;20488;-76
2022/08/15 02:21:14;;;;;;;2.53;2.33;;;20.90;87.80;;;;;;5011068;28;20037;-76
2022/08/15 02:23:40;;;;;;;3.95;2.13;;;20.90;87.80;;;;;;5011988;28;20026;-76
2022/08/15 02:26:08;;;;;;;2.78;2.30;;;20.90;87.50;;;;;;5012210;28;20488;-76
2022/08/15 02:28:35;;;;;;;2.58;2.28;;;21.00;87.40;;;;;;5011254;28;20033;-77
2022/08/15 02:31:06;;;;;;;2.58;2.38;;;21.00;87.70;;;;;;5011928;28;20489;-77
2022/08/15 02:33:31;;;;;;;2.83;2.22;;;21.00;87.30;;;;;;5011285;28;20117;-76
2022/08/15 02:35:58;;;;;;;2.83;1.95;;;21.00;87.20;;;;;;5011945;28;20520;-77
2022/08/15 02:38:24;;;;;;;2.88;2.17;;;21.00;87.10;;;;;;5009743;28;20156;-76
2022/08/15 02:40:50;;;;;;;3.90;2.63;;;21.00;87.20;;;;;;5011833;28;20048;-77
2022/08/15 02:43:18;;;;;;;4.22;2.30;;;21.10;87.30;;;;;;5011139;28;20044;-76
2022/08/15 02:45:47;;;;;;;3.13;2.08;;;21.00;87.30;;;;;;5011725;28;20026;-77
2022/08/15 02:48:14;;;;;;;2.45;2.10;;;21.00;87.30;;;;;;5011232;28;20080;-77
2022/08/15 02:50:41;;;;;;;3.25;2.25;;;21.10;87.60;;;;;;5010362;28;20022;-77
2022/08/15 02:53:17;;;;;;;3.20;2.00;;;21.00;87.50;;;;;;5009333;28;20057;-77
2022/08/15 02:55:46;;;;;;;2.63;2.42;;;21.00;87.60;;;;;;5011615;28;20024;-76
2022/08/15 02:58:12;;;;;;;3.40;2.42;;;21.00;87.50;;;;;;5010970;28;20018;-76
2022/08/15 03:00:40;;;;;;;3.55;2.60;;;21.00;87.40;;;;;;5009948;28;20033;-78
2022/08/15 03:03:09;;;;;;;3.67;2.03;;;21.00;87.70;;;;;;5009397;28;20062;-76
2022/08/15 03:05:37;;;;;;;2.42;2.13;;;21.00;88.00;;;;;;5011205;28;20033;-76
2022/08/15 03:08:04;;;;;;;3.75;2.00;;;20.90;88.10;;;;;;5010850;28;20072;-76
2022/08/15 03:10:30;;;;;;;2.85;2.20;;;20.90;88.20;;;;;;5010845;28;20013;-76
2022/08/15 03:13:08;;;;;;;4.15;2.65;;;20.90;88.30;;;;;;5010797;28;20117;-76
2022/08/15 03:15:47;;;;;;;2.50;2.30;;;20.80;88.30;;;;;;5010002;28;20038;-76
2022/08/15 03:18:13;;;;;;;4.47;2.17;;;20.80;88.50;;;;;;5009430;28;20076;-76
2022/08/15 03:20:40;;;;;;;2.33;2.13;;;20.90;88.40;;;;;;5009765;28;20073;-76
2022/08/15 03:23:07;;;;;;;3.08;2.15;;;20.80;88.30;;;;;;5009054;28;20037;-77
2022/08/15 03:25:42;;;;;;;2.53;2.30;;;20.90;88.30;;;;;;5010050;28;20033;-76
2022/08/15 03:28:08;;;;;;;4.15;2.30;;;20.90;88.00;;;;;;5010457;28;20036;-76
2022/08/15 03:30:34;;;;;;;4.47;2.10;;;20.90;88.10;;;;;;5011239;28;20034;-76
2022/08/15 03:33:00;;;;;;;2.30;2.10;;;20.90;87.60;;;;;;5010309;28;20029;-77
2022/08/15 03:35:29;;;;;;;1.95;1.85;;;21.00;87.40;;;;;;5010716;28;20029;-76
2022/08/15 03:37:57;;;;;;;2.30;2.10;;;21.00;87.00;;;;;;5010516;28;20164;-76
2022/08/15 03:40:23;;;;;;;2.58;1.95;;;21.10;86.80;;;;;;5011281;28;20022;-76
2022/08/15 03:43:18;;;;;;;5.15;2.40;;;21.10;86.40;;;;;;5010476;28;20026;-77
2022/08/15 03:45:51;;;;;;;3.70;2.28;;;21.20;86.10;;;;;;5009379;28;20084;-77
2022/08/15 03:48:19;;;;;;;2.45;2.20;;;21.30;85.60;;;;;;5010197;28;20030;-77
2022/08/15 03:50:45;;;;;;;2.33;2.00;;;21.30;85.30;;;;;;5011128;28;20026;-77
2022/08/15 03:53:11;;;;;;;2.67;2.30;;;21.40;85.10;;;;;;5008790;28;20057;-77
2022/08/15 03:55:38;;;;;;;3.95;2.47;;;21.40;84.80;;;;;;5010792;28;20018;-76
2022/08/15 03:58:05;;;;;;;3.08;2.20;;;21.40;84.60;;;;;;5010312;28;20029;-76
2022/08/15 04:00:35;;;;;;;2.15;2.05;;;21.50;84.30;;;;;;5010952;28;20053;-77
2022/08/15 04:03:23;;;;;;;3.03;2.40;;;21.50;84.10;;;;;;5010037;28;20026;-77
2022/08/15 04:05:51;;;;;;;2.03;1.77;;;21.50;83.90;;;;;;5009660;28;20069;-77
2022/08/15 04:08:22;;;;;;;1.98;1.88;;;21.60;83.80;;;;;;5008803;28;20033;-77
2022/08/15 04:10:52;;;;;;;2.30;2.13;;;21.60;83.70;;;;;;5010852;28;20029;-77
2022/08/15 04:13:24;;;;;;;5.60;2.03;;;21.60;83.20;;;;;;5008912;28;20026;-76
2022/08/15 04:15:52;;;;;;;2.05;1.95;;;21.70;82.60;;;;;;5010538;28;20452;-76
2022/08/15 04:18:17;;;;;;;2.67;2.25;;;21.70;82.70;;;;;;5010136;28;20373;-76
2022/08/15 04:20:43;;;;;;;1.95;1.85;;;21.80;82.30;;;;;;5010533;28;20025;-77
2022/08/15 04:23:09;;;;;;;2.28;2.03;;;21.80;82.30;;;;;;5012112;28;20073;-77
2022/08/15 04:25:38;;;;;;;2.25;2.05;;;21.90;82.30;;;;;;5014172;28;20030;-77
2022/08/15 04:28:05;;;;;;;3.75;2.22;;;21.90;82.20;;;;;;5013598;28;20030;-77
2022/08/15 04:30:34;;;;;;;2.28;2.17;;;21.90;82.10;;;;;;5014347;28;20029;-77
2022/08/15 04:33:20;;;;;;;12.90;2.30;;;21.90;81.80;;;;;;5013458;28;20105;-77
2022/08/15 04:36:10;;;;;;;3.13;1.98;;;22.00;81.80;;;;;;5014159;28;20033;-77
2022/08/15 04:38:40;;;;;;;3.40;2.42;;;22.00;82.40;;;;;;5007189;28;20112;-77
2022/08/15 04:41:07;;;;;;;2.53;2.22;;;22.00;81.20;;;;;;5012851;28;20125;-77
2022/08/15 04:43:35;;;;;;;3.42;2.15;;;22.10;81.10;;;;;;5011869;28;20038;-77
2022/08/15 04:46:01;;;;;;;2.47;2.28;;;22.10;80.50;;;;;;5013853;28;20428;-77
2022/08/15 04:48:27;;;;;;;4.65;2.20;;;22.20;80.70;;;;;;5013179;28;20479;-77
2022/08/15 04:50:54;;;;;;;2.72;2.10;;;22.20;80.50;;;;;;5013963;28;20044;-80
2022/08/15 04:53:24;;;;;;;2.35;2.20;;;22.30;80.60;;;;;;5013053;28;20046;-78
2022/08/15 04:55:51;;;;;;;2.88;2.30;;;22.30;80.30;;;;;;5013804;28;20076;-77
2022/08/15 04:58:18;;;;;;;3.72;2.30;;;22.40;80.20;;;;;;5013130;28;20511;-77
2022/08/15 05:00:52;;;;;;;3.17;2.30;;;22.40;79.80;;;;;;5013730;28;20043;-77
2022/08/15 05:03:19;;;;;;;2.33;2.13;;;22.40;79.90;;;;;;5012592;28;20026;-77
2022/08/15 05:05:53;;;;;;;4.82;2.63;;;22.50;80.20;;;;;;5012333;28;20034;-77
2022/08/15 05:08:22;;;;;;;3.05;2.20;;;22.60;79.80;;;;;;5011617;28;20022;-77
2022/08/15 05:10:54;;;;;;;3.15;1.95;;;22.70;79.60;;;;;;5013652;28;20399;-77
2022/08/15 05:13:24;;;;;;;2.50;2.30;;;22.70;79.40;;;;;;5011679;28;20416;-76
2022/08/15 05:15:51;;;;;;;2.92;2.28;;;22.80;79.20;;;;;;5012213;28;20388;-76
2022/08/15 05:18:17;;;;;;;2.08;1.98;;;22.90;79.30;;;;;;5011645;28;20025;-77
2022/08/15 05:20:43;;;;;;;2.20;2.10;;;22.90;79.20;;;;;;5013285;28;20029;-76
2022/08/15 05:23:14;;;;;;;2.95;2.00;;;22.90;79.00;;;;;;5012704;28;20508;-76
2022/08/15 05:25:43;;;;;;;7.63;2.40;;;23.00;78.60;;;;;;5011996;28;20026;-77
2022/08/15 05:28:10;;;;;;;2.15;2.00;;;23.10;78.50;;;;;;5012857;28;20523;-76
2022/08/15 05:30:37;;;;;;;2.90;2.10;;;23.10;78.30;;;;;;5013025;28;20022;-77
2022/08/15 05:33:05;;;;;;;3.47;2.00;;;23.30;78.30;;;;;;5012484;28;20389;-78
2022/08/15 05:35:32;;;;;;;2.30;2.10;;;23.30;77.60;;;;;;5011429;28;20026;-78
2022/08/15 05:38:03;;;;;;;6.05;2.33;;;23.40;77.20;;;;;;5012066;28;20050;-77
2022/08/15 05:40:39;;;;;;;3.17;2.30;;;23.50;77.10;;;;;;5013257;28;20053;-77
2022/08/15 05:43:14;;;;;;;1.88;1.77;;;23.60;77.20;;;;;;5012073;28;20026;-77
2022/08/15 05:46:07;;;;;;;2.60;1.95;;;23.70;78.00;;;;;;5014036;28;20101;-77
2022/08/15 05:48:33;;;;;;;2.33;2.13;;;23.80;76.80;;;;;;5014211;28;20505;-77
2022/08/15 05:51:00;;;;;;;2.10;1.90;;;23.90;76.60;;;;;;5011409;28;20446;-77
2022/08/15 05:53:33;;;;;;;2.42;2.10;;;24.00;76.40;;;;;;5011831;28;20144;-77
2022/08/15 05:56:04;;;;;;;4.78;2.20;;;24.10;76.00;;;;;;5011520;28;20500;-77
2022/08/15 05:58:39;;;;;;;2.40;2.20;;;24.10;75.90;;;;;;5011640;28;20080;-77
2022/08/15 06:01:15;;;;;;;2.38;2.10;;;24.10;75.90;;;;;;5011352;28;20022;-78
2022/08/15 06:03:46;;;;;;;3.15;2.20;;;24.10;76.00;;;;;;5010318;28;20025;-78
2022/08/15 06:06:18;;;;;;;2.22;2.03;;;24.20;76.30;;;;;;5012141;28;20033;-79
2022/08/15 06:08:48;;;;;;;4.38;2.25;;;24.20;76.20;;;;;;5011724;28;20042;-78
2022/08/15 06:11:22;;;;;;;2.30;2.10;;;24.20;76.70;;;;;;5011331;28;20038;-77
2022/08/15 06:14:00;;;;;;;3.88;2.67;;;24.10;77.00;;;;;;5012710;28;20072;-76
2022/08/15 06:16:29;;;;;;;4.72;2.30;;;24.10;76.70;;;;;;4993199;28;20088;-77
2022/08/15 06:18:56;;;;;;;4.90;2.60;;;24.10;77.30;;;;;;5010830;28;20029;-77
2022/08/15 06:21:30;;;;;;;2.95;2.25;;;24.00;77.30;;;;;;5012303;28;20488;-77
2022/08/15 06:24:02;;;;;;;2.50;2.30;;;24.10;77.70;;;;;;5011352;28;20033;-77
2022/08/15 06:26:36;;;;;;;3.42;2.28;;;24.10;77.40;;;;;;5011987;28;20072;-77
2022/08/15 06:29:24;;;;;;;3.38;2.22;;;24.00;77.10;;;;;;5011715;28;20030;-77
2022/08/15 06:32:29;;;;;;;2.20;2.10;;;24.10;77.20;;;;;;5011534;28;20435;-77
2022/08/15 06:35:10;;;;;;;9.82;2.15;;;24.20;76.80;;;;;;5011027;28;20072;-77
2022/08/15 06:37:59;;;;;;;7.68;2.40;;;24.30;76.90;;;;;;5011441;28;20026;-77
2022/08/15 06:40:44;;;;;;;8.05;2.40;;;24.40;76.50;;;;;;5013477;28;20393;-78
2022/08/15 06:43:11;;;;;;;2.40;2.00;;;24.60;76.40;;;;;;5011216;28;20069;-77
2022/08/15 06:45:40;;;;;;;2.85;2.20;;;24.70;75.20;;;;;;5012697;28;20026;-77
2022/08/15 06:48:13;;;;;;;2.05;1.95;;;24.80;75.00;;;;;;5010923;28;20025;-78
2022/08/15 06:50:47;;;;;;;2.58;2.35;;;24.90;74.80;;;;;;5011473;28;20030;-77
2022/08/15 06:53:53;;;;;;;2.65;2.15;;;25.00;74.30;;;;;;5010909;28;20046;-78
2022/08/15 06:56:39;;;;;;;2.65;2.35;;;25.10;73.70;;;;;;5010329;28;20076;-78
2022/08/15 06:59:39;;;;;;;3.40;2.60;;;25.30;73.90;;;;;;5026070;28;20064;-78
2022/08/15 07:02:27;;;;;;;2.72;2.33;;;25.40;72.70;;;;;;5010955;28;20026;-77
2022/08/15 07:04:53;;;;;;;3.60;2.17;;;25.50;72.90;;;;;;5010008;28;20034;-78
2022/08/15 07:07:37;;;;;;;3.22;2.60;;;25.60;72.20;;;;;;5010774;28;20029;-77
2022/08/15 07:10:49;;;;;;;3.42;2.60;;;25.70;71.90;;;;;;5025132;28;20029;-78
2022/08/15 07:13:21;;;;;;;3.00;2.70;;;25.90;71.80;;;;;;5010552;28;20649;-79
2022/08/15 07:15:57;;;;;;;2.85;2.53;;;25.90;71.60;;;;;;5011211;28;20037;-79
2022/08/15 07:18:23;;;;;;;2.55;2.30;;;26.00;71.20;;;;;;5011007;28;20029;-77
2022/08/15 07:20:49;;;;;;;6.30;2.42;;;26.20;71.20;;;;;;5011269;28;20022;-77
2022/08/15 07:23:23;;;;;;;4.38;2.30;;;26.20;70.60;;;;;;5010735;28;20040;-78
2022/08/15 07:25:52;;;;;;;4.47;2.55;;;26.30;69.70;;;;;;5011302;28;20025;-79
2022/08/15 07:28:24;;;;;;;2.25;1.98;;;26.40;70.40;;;;;;5010583;28;20033;-76
2022/08/15 07:31:02;;;;;;;11.05;2.97;;;26.60;70.20;;;;;;5009950;28;20025;-76
2022/08/15 07:33:29;;;;;;;201.82;11.10;;;26.70;70.10;;;;;;5010417;28;20076;-79
2022/08/15 07:36:03;;;;;;;5.82;2.40;;;26.90;70.70;;;;;;5009380;28;20742;-77
2022/08/15 07:38:30;;;;;;;4.20;2.50;;;27.00;69.10;;;;;;5010386;28;20280;-80
2022/08/15 07:41:11;;;;;;;3.10;2.40;;;27.10;68.80;;;;;;5011161;28;20040;-77
2022/08/15 07:43:38;;;;;;;3.30;2.60;;;27.20;68.60;;;;;;5009868;28;20053;-79
2022/08/15 07:46:11;;;;;;;2.92;2.00;;;27.20;68.10;;;;;;5011424;28;20051;-79
2022/08/15 07:48:38;;;;;;;3.80;2.70;;;27.30;68.10;;;;;;5009189;28;20072;-77
2022/08/15 07:51:16;;;;;;;7.82;2.30;;;27.30;67.70;;;;;;5009599;28;20030;-77
2022/08/15 07:53:55;;;;;;;4.20;2.50;;;27.50;67.70;;;;;;5008985;28;20508;-77
2022/08/15 07:56:22;;;;;;;3.08;2.33;;;27.90;67.00;;;;;;4991436;28;20146;-77
2022/08/15 07:58:52;;;;;;;3.28;2.30;;;28.20;66.50;;;;;;5011234;28;20484;-77
2022/08/15 08:01:27;;;;;;;4.90;2.58;;;28.60;65.70;;;;;;4993917;28;20125;-77
2022/08/15 08:04:13;;;;;;;2.80;2.60;;;28.90;65.10;;;;;;5012857;28;20029;-78
2022/08/15 08:06:55;;;;;;;4.35;3.00;;;29.20;64.80;;;;;;5013196;28;20053;-79
2022/08/15 08:09:23;;;;;;;3.25;2.83;;;29.50;63.20;;;;;;5014243;28;20531;-78
2022/08/15 08:11:53;;;;;;;3.85;2.72;;;29.60;63.20;;;;;;5012682;28;20030;-78
2022/08/15 08:14:48;;;;;;;3.80;2.92;;;29.60;62.80;;;;;;5015862;28;20037;-79
2022/08/15 08:17:50;;;;;;;5.10;2.80;;;29.60;62.50;;;;;;5013785;28;20021;-78
2022/08/15 08:20:35;;;;;;;;;;;29.50;63.30;;;;;;5004226;28;20064;-77
2022/08/15 08:23:10;;;;;;;3.00;2.70;;;29.30;62.30;;;;;;5012347;28;19909;-78
2022/08/15 08:26:15;;;;;;;4.85;2.92;;;29.30;63.10;;;;;;5014530;28;20025;-78
2022/08/15 08:28:42;;;;;;;3.50;3.20;;;29.10;63.70;;;;;;5012426;28;20040;-78
2022/08/15 08:31:17;;;;;;;4.95;3.20;;;29.00;63.10;;;;;;5013205;28;20026;-77
2022/08/15 08:34:05;;;;;;;3.15;2.85;;;29.00;62.90;;;;;;5012382;28;20025;-78
2022/08/15 08:36:44;;;;;;;3.17;2.70;;;28.90;63.10;;;;;;4994972;28;20030;-83
2022/08/15 08:39:37;;;;;;;4.20;3.20;;;28.80;64.30;;;;;;5013732;28;20049;-80
2022/08/15 08:42:22;;;;;;;3.50;3.20;;;28.80;64.70;;;;;;5013646;28;20034;-77
2022/08/15 08:45:04;;;;;;;7.35;3.20;;;28.80;64.00;;;;;;5013228;28;20034;-77
2022/08/15 08:48:15;;;;;;;4.85;3.08;;;28.80;63.90;;;;;;5013251;28;20029;-76
2022/08/15 08:50:56;;;;;;;4.32;2.95;;;28.80;64.30;;;;;;5013841;28;20026;-77
2022/08/15 08:53:53;;;;;;;6.95;2.92;;;28.60;65.10;;;;;;5013199;28;20073;-78
2022/08/15 08:56:27;;;;;;;15.77;6.10;;;28.40;67.20;;;;;;4994068;28;20038;-79
2022/08/15 08:59:08;;;;;;;4.50;3.33;;;28.30;65.40;;;;;;5012381;28;20543;-77
2022/08/15 09:01:36;;;;;;;6.63;4.03;;;28.20;67.10;;;;;;5012335;28;20141;-77
2022/08/15 09:04:07;;;;;;;3.42;3.00;;;28.00;65.90;;;;;;5012784;28;20030;-76
2022/08/15 09:06:40;;;;;;;20.02;5.13;;;27.90;65.80;;;;;;5013585;28;20026;-77
2022/08/15 09:09:24;;;;;;;7.93;3.92;;;27.70;65.70;;;;;;5012394;28;20404;-78
2022/08/15 09:11:56;;;;;;;11.20;7.60;;;27.70;67.00;;;;;;5012840;28;20033;-77
2022/08/15 09:14:22;;;;;;;;;;;27.80;66.40;;;;;;5014709;28;20038;-77
2022/08/15 09:16:51;;;;;;;5.63;4.85;;;27.80;65.60;;;;;;5011679;28;19906;-79
2022/08/15 09:19:34;;;;;;;10.38;9.35;;;27.80;66.00;;;;;;5010632;28;20022;-78
2022/08/15 09:22:01;;;;;;;14.57;8.60;;;27.80;65.90;;;;;;5012795;28;20431;-79
2022/08/15 09:24:27;;;;;;;5.30;4.35;;;27.90;66.20;;;;;;5011683;28;20045;-79
2022/08/15 09:27:07;;;;;;;7.85;5.68;;;28.00;65.50;;;;;;5011258;28;20112;-78
2022/08/15 09:29:42;;;;;;;3.70;3.20;;;28.00;64.10;;;;;;5027422;28;20018;-78
2022/08/15 09:32:30;;;;;;;3.97;3.47;;;27.90;64.10;;;;;;5012554;28;20010;-77
2022/08/15 09:34:56;;;;;;;7.45;3.17;;;27.90;65.50;;;;;;5012189;28;20076;-79
2022/08/15 09:37:40;;;;;;;6.57;3.58;;;28.00;65.70;;;;;;5012352;28;20445;-78
2022/08/15 09:40:10;;;;;;;4.38;3.70;;;28.00;65.50;;;;;;5027383;28;20022;-79
2022/08/15 09:43:13;;;;;;;8.57;5.85;;;28.10;65.80;;;;;;5011002;28;20378;-76
2022/08/15 09:46:06;;;;;;;4.30;3.25;;;28.10;66.60;;;;;;5012772;28;20030;-78
2022/08/15 09:48:42;;;;;;;;;;;28.20;65.80;;;;;;5012797;28;20022;-77
2022/08/15 09:51:47;;;;;;;3.50;3.20;;;28.20;66.20;;;;;;5011567;28;20026;-77
2022/08/15 09:54:22;;;;;;;4.15;3.08;;;28.30;66.90;;;;;;5008791;28;20042;-78
2022/08/15 09:56:49;;;;;;;4.57;4.18;;;28.30;66.20;;;;;;5010943;28;20449;-78
2022/08/15 09:59:19;;;;;;;14.77;10.07;;;28.40;65.30;;;;;;5011198;28;20022;-77
2022/08/15 10:01:59;;;;;;;8.98;5.32;;;28.40;65.60;;;;;;5011778;28;20064;-77
2022/08/15 10:04:49;;;;;;;3.75;3.33;;;28.40;65.50;;;;;;5011360;28;20030;-76
2022/08/15 10:07:15;;;;;;;4.78;3.63;;;28.60;65.40;;;;;;5011766;28;20538;-77
2022/08/15 10:09:56;;;;;;;3.88;3.10;;;28.80;64.60;;;;;;5012573;28;20018;-78
2022/08/15 10:12:22;;;;;;;6.77;4.77;;;28.80;64.40;;;;;;5011839;28;20083;-80
2022/08/15 10:15:35;;;;;;;4.40;3.70;;;28.80;64.70;;;;;;5012200;28;20040;-77
2022/08/15 10:18:05;;;;;;;;;;;28.70;64.70;;;;;;5013140;28;20108;-77
2022/08/15 10:20:46;;;;;;;4.05;3.22;;;28.60;64.40;;;;;;5011569;28;20330;-79
2022/08/15 10:23:14;;;;;;;7.25;4.47;;;28.50;65.00;;;;;;5010171;28;20025;-77
2022/08/15 10:25:48;;;;;;;7.03;4.53;;;28.60;65.20;;;;;;5012231;28;20034;-77
2022/08/15 10:28:14;;;;;;;7.47;4.00;;;28.60;65.50;;;;;;5010094;28;20124;-77
2022/08/15 10:31:01;;;;;;;4.38;3.28;;;28.60;65.30;;;;;;5010831;28;20084;-77
2022/08/15 10:33:33;;;;;;;4.35;3.03;;;28.50;65.60;;;;;;5009684;28;20037;-77
2022/08/15 10:36:14;;;;;;;4.22;3.22;;;28.60;66.30;;;;;;5012105;28;20503;-77
2022/08/15 10:39:10;;;;;;;8.70;5.22;;;28.60;66.20;;;;;;5010012;28;20100;-76
2022/08/15 10:42:02;;;;;;;4.70;3.65;;;28.70;66.40;;;;;;4992560;28;20089;-78
2022/08/15 10:44:53;;;;;;;4.53;3.38;;;28.80;65.70;;;;;;5012542;28;20060;-78
2022/08/15 10:47:28;;;;;;;4.60;3.83;;;28.60;66.90;;;;;;5009768;28;20587;-77
2022/08/15 10:50:04;;;;;;;4.57;4.15;;;28.40;68.80;;;;;;5011872;28;20044;-78
2022/08/15 10:52:33;;;;;;;6.80;3.97;;;28.40;69.60;;;;;;5011031;28;20042;-78
2022/08/15 10:55:18;;;;;;;6.35;4.18;;;28.50;71.60;;;;;;5010424;28;20045;-79
2022/08/15 10:57:58;;;;;;;9.15;4.40;;;28.50;72.80;;;;;;5010976;28;20078;-77
2022/08/15 11:00:38;;;;;;;6.57;4.93;;;28.30;74.00;;;;;;5005887;28;20477;-77
2022/08/15 11:03:16;;;;;;;5.00;3.70;;;28.30;75.70;;;;;;5010715;28;20026;-77
2022/08/15 11:05:42;;;;;;;5.90;3.72;;;28.50;74.70;;;;;;5011445;28;20443;-77
2022/08/15 11:08:13;;;;;;;7.97;4.28;;;28.80;75.50;;;;;;5010819;28;20022;-78
2022/08/15 11:10:39;;;;;;;5.45;4.85;;;28.80;75.20;;;;;;5011598;28;20121;-78
2022/08/15 11:13:14;;;;;;;7.22;5.38;;;28.90;76.60;;;;;;5010322;28;20104;-78
2022/08/15 11:15:58;;;;;;;8.82;5.00;;;28.80;75.90;;;;;;5012886;28;20021;-77
2022/08/15 11:18:44;;;;;;;4.88;3.60;;;28.60;77.40;;;;;;5009503;28;20032;-78
2022/08/15 11:21:17;;;;;;;4.18;3.75;;;28.70;77.90;;;;;;5025657;28;20499;-78
2022/08/15 11:23:49;;;;;;;5.85;3.92;;;28.60;80.90;;;;;;5009126;28;20040;-78
2022/08/15 11:26:23;;;;;;;12.13;4.47;;;28.90;81.70;;;;;;5011404;28;20113;-76
2022/08/15 11:29:07;;;;;;;11.25;4.97;;;29.10;82.50;;;;;;5010440;28;20029;-78
2022/08/15 11:31:49;;;;;;;5.45;4.00;;;29.30;86.90;;;;;;4996287;28;20507;-78
2022/08/15 11:34:35;;;;;;;5.65;4.55;;;29.50;88.30;;;;;;5010887;28;20028;-77
2022/08/15 11:37:09;;;;;;;6.53;4.63;;;29.30;90.50;;;;;;5010874;28;20106;-77
2022/08/15 11:39:42;;;;;;;6.35;4.95;;;29.30;92.40;;;;;;5010420;28;20504;-78
2022/08/15 11:42:13;;;;;;;5.35;4.43;;;29.10;92.70;;;;;;5010477;28;20072;-77
2022/08/15 11:44:52;;;;;;;6.70;4.50;;;28.90;93.70;;;;;;5012157;28;20037;-78
2022/08/15 11:47:19;;;;;;;10.38;4.80;;;28.90;93.30;;;;;;5010350;28;20046;-78
2022/08/15 11:49:49;;;;;;;8.48;4.65;;;28.80;93.60;;;;;;5010795;28;20026;-78
2022/08/15 11:52:22;;;;;;;10.95;5.10;;;28.70;93.20;;;;;;5010396;28;20107;-77
2022/08/15 11:55:38;;;;;;;5.00;4.50;;;28.50;94.30;;;;;;5009544;28;20539;-76
2022/08/15 11:58:03;;;;;;;9.63;4.68;;;28.40;94.90;;;;;;5004893;28;20026;-77
2022/08/15 12:00:43;;;;;;;5.88;5.00;;;28.40;95.80;;;;;;5009800;28;20622;-78
2022/08/15 12:03:34;;;;;;;6.35;5.10;;;28.30;96.90;;;;;;5009909;28;20476;-77
2022/08/15 12:06:12;;;;;;;10.00;5.40;;;28.20;97.30;;;;;;5009564;28;20037;-76
2022/08/15 12:08:39;;;;;;;7.75;4.85;;;28.20;97.00;;;;;;5010098;28;20432;-77
2022/08/15 12:11:14;;;;;;;8.57;6.03;;;28.40;97.00;;;;;;5009720;28;20432;-77
2022/08/15 12:14:13;;;;;;;6.32;4.70;;;29.20;95.90;;;;;;5011195;28;20081;-77
2022/08/15 12:17:01;;;;;;;4.55;3.90;;;30.20;93.60;;;;;;4991694;28;20516;-79
2022/08/15 12:19:35;;;;;;;8.43;4.70;;;31.20;91.20;;;;;;5010125;28;20036;-77
2022/08/15 12:22:10;;;;;;;6.13;4.32;;;32.10;91.00;;;;;;5008841;28;20014;-78
2022/08/15 12:24:37;;;;;;;4.65;3.85;;;33.10;87.70;;;;;;5010093;28;20038;-78
2022/08/15 12:27:06;;;;;;;7.40;3.85;;;33.60;85.40;;;;;;5010049;28;20491;-77
2022/08/15 12:29:33;;;;;;;5.90;3.85;;;33.80;84.00;;;;;;5008309;28;20034;-76
2022/08/15 12:32:00;;;;;;;8.27;3.65;;;34.00;83.10;;;;;;5010142;28;20515;-77
2022/08/15 12:34:32;;;;;;;5.57;3.55;;;34.10;82.20;;;;;;5009911;28;20040;-77
2022/08/15 12:37:00;;;;;;;5.78;3.97;;;33.90;83.80;;;;;;5009042;28;20487;-78
2022/08/15 12:39:27;;;;;;;5.68;3.58;;;34.40;82.70;;;;;;5009814;28;20120;-78
2022/08/15 12:41:54;;;;;;;6.90;3.55;;;34.90;81.20;;;;;;5008588;28;20117;-77
2022/08/15 12:44:28;;;;;;;4.50;3.58;;;35.40;80.50;;;;;;5013633;28;20067;-78
2022/08/15 12:46:55;;;;;;;5.72;3.90;;;36.00;78.90;;;;;;5013281;28;20022;-77
2022/08/15 12:49:21;;;;;;;4.90;3.83;;;36.90;75.50;;;;;;5012693;28;20037;-78
2022/08/15 12:51:47;;;;;;;7.45;4.07;;;36.10;76.40;;;;;;5013107;28;20033;-77
2022/08/15 12:54:13;;;;;;;14.85;7.55;;;34.20;79.40;;;;;;5013337;28;20034;-78
2022/08/15 12:56:40;;;;;;;5.03;4.13;;;33.50;83.90;;;;;;5012436;28;20025;-77
2022/08/15 12:59:05;;;;;;;7.85;3.05;;;34.20;82.30;;;;;;5013621;28;20022;-78
2022/08/15 13:01:33;;;;;;;4.38;3.10;;;35.80;72.30;;;;;;5013641;28;20108;-77
2022/08/15 13:04:05;;;;;;;6.97;5.43;;;37.00;68.50;;;;;;5027782;28;20088;-78
2022/08/15 13:06:56;;;;;;;8.57;6.55;;;38.00;68.20;;;;;;5013771;28;20546;-84
2022/08/15 13:09:24;;;;;;;7.28;3.97;;;39.10;67.40;;;;;;5013205;28;20034;-78
2022/08/15 13:11:50;;;;;;;4.53;2.65;;;40.30;65.30;;;;;;5013005;28;20440;-78
2022/08/15 13:14:18;;;;;;;2.65;2.30;;;41.10;63.30;;;;;;5014755;28;20022;-77
2022/08/15 13:16:48;;;;;;;5.35;2.90;;;41.10;61.10;;;;;;5011866;28;20030;-78
2022/08/15 13:19:21;;;;;;;3.77;2.53;;;40.00;62.00;;;;;;5013297;28;20014;-77
2022/08/15 13:24:32;;;;;;;4.88;2.30;;;38.30;63.90;;;;;;5011580;28;20037;-78
2022/08/15 13:26:59;;;;;;;6.68;2.10;;;39.50;62.60;;;;;;5012869;28;20381;-77
2022/08/15 13:29:25;;;;;;;8.77;2.42;;;41.60;58.30;;;;;;5012468;28;20022;-77